Time;durP1;ratioP1;P1;durP2;ratioP2;P2;SDS_P1;SDS_P2;PMS_P1;PMS_P2;Temp;Humidity;BMP_temperature;BMP_pressure;BME280_temperature;BME280_humidity;BME280_pressure;Samples;Min_cycle;Max_cycle;Signal;HPM_P1;HPM_P2
2023/01/14 00:01:26;;;;;;;20.55;5.60;;;6.80;99.90;;;;;;5066909;28;20052;-70
2023/01/14 00:03:52;;;;;;;32.30;7.18;;;6.80;99.90;;;;;;5050158;28;20358;-70
2023/01/14 00:06:20;;;;;;;29.90;6.28;;;6.80;99.90;;;;;;5067334;28;20106;-69
2023/01/14 00:08:47;;;;;;;16.40;5.05;;;6.80;99.90;;;;;;5068305;28;20056;-69
2023/01/14 00:11:14;;;;;;;24.00;5.97;;;6.80;99.90;;;;;;5068850;28;20055;-69
2023/01/14 00:13:42;;;;;;;23.92;6.90;;;6.70;99.90;;;;;;5082753;28;20152;-70
2023/01/14 00:16:12;;;;;;;32.58;6.65;;;6.80;99.90;;;;;;5065764;28;20090;-69
2023/01/14 00:18:37;;;;;;;22.00;6.00;;;6.80;99.90;;;;;;5068619;28;20116;-69
2023/01/14 00:21:12;;;;;;;23.75;6.22;;;6.80;99.90;;;;;;5063051;28;20115;-69
2023/01/14 00:23:38;;;;;;;26.60;5.63;;;6.80;99.90;;;;;;5065773;28;20088;-69
2023/01/14 00:26:15;;;;;;;21.45;6.75;;;6.80;99.90;;;;;;5068556;28;20114;-70
2023/01/14 00:28:45;;;;;;;22.95;6.35;;;6.80;99.90;;;;;;5068609;28;20040;-69
2023/01/14 00:31:14;;;;;;;22.83;5.38;;;6.80;99.90;;;;;;5064526;28;20041;-70
2023/01/14 00:33:40;;;;;;;25.27;6.47;;;6.80;99.90;;;;;;5068503;28;20476;-69
2023/01/14 00:36:08;;;;;;;21.63;6.13;;;6.80;99.90;;;;;;5058082;28;20078;-69
2023/01/14 00:38:36;;;;;;;21.08;6.63;;;6.80;99.90;;;;;;5065522;28;20826;-70
2023/01/14 00:41:07;;;;;;;22.97;5.57;;;6.80;99.90;;;;;;5054865;28;20040;-69
2023/01/14 00:43:34;;;;;;;20.50;6.47;;;6.80;99.90;;;;;;5075096;28;20302;-69
2023/01/14 00:45:59;;;;;;;33.00;7.38;;;6.70;99.90;;;;;;5068971;28;20428;-69
2023/01/14 00:48:25;;;;;;;31.25;5.97;;;6.70;99.90;;;;;;5063549;28;20036;-69
2023/01/14 00:50:51;;;;;;;27.23;6.90;;;6.70;99.90;;;;;;5067192;28;20051;-69
2023/01/14 00:53:17;;;;;;;16.65;5.03;;;6.70;99.90;;;;;;5082227;28;20116;-70
2023/01/14 00:55:44;;;;;;;27.60;7.55;;;6.70;99.90;;;;;;5066179;28;20044;-70
2023/01/14 00:58:10;;;;;;;21.73;5.88;;;6.70;99.90;;;;;;5076537;28;20176;-69
2023/01/14 01:00:35;;;;;;;19.25;5.03;;;6.70;99.90;;;;;;5079413;28;20496;-70
2023/01/14 01:03:01;;;;;;;15.93;5.28;;;6.60;99.90;;;;;;5073851;28;20064;-69
2023/01/14 01:05:27;;;;;;;20.35;5.60;;;6.70;99.90;;;;;;5057079;28;20073;-69
2023/01/14 01:07:52;;;;;;;29.23;6.30;;;6.70;99.90;;;;;;5071472;28;20044;-70
2023/01/14 01:10:18;;;;;;;20.00;6.10;;;6.70;99.90;;;;;;5084708;28;20122;-70
2023/01/14 01:12:45;;;;;;;19.92;5.07;;;6.60;99.90;;;;;;5065721;28;20040;-69
2023/01/14 01:15:10;;;;;;;27.45;6.65;;;6.60;99.90;;;;;;5070599;28;20504;-70
2023/01/14 01:17:36;;;;;;;16.67;5.80;;;6.70;99.90;;;;;;5076697;28;20060;-70
2023/01/14 01:20:02;;;;;;;22.52;6.72;;;6.60;99.90;;;;;;5064857;28;20865;-69
2023/01/14 01:22:28;;;;;;;32.25;6.05;;;6.70;99.90;;;;;;5072295;28;20048;-70
2023/01/14 01:24:54;;;;;;;23.77;6.85;;;6.70;99.90;;;;;;5050582;28;20044;-70
2023/01/14 01:27:20;;;;;;;18.58;6.10;;;6.70;99.90;;;;;;5079457;28;20047;-69
2023/01/14 01:29:45;;;;;;;23.88;6.50;;;6.60;99.90;;;;;;5072330;28;20536;-69
2023/01/14 01:32:11;;;;;;;17.98;6.80;;;6.60;99.90;;;;;;5074407;28;20048;-70
2023/01/14 01:34:37;;;;;;;19.98;5.90;;;6.60;99.90;;;;;;5066669;28;20482;-70
2023/01/14 01:37:02;;;;;;;25.35;5.97;;;6.60;99.90;;;;;;5063050;28;20083;-70
2023/01/14 01:39:28;;;;;;;20.45;5.88;;;6.60;99.90;;;;;;5078248;28;20050;-69
2023/01/14 01:41:54;;;;;;;25.00;7.32;;;6.60;99.90;;;;;;5081620;28;20048;-70
2023/01/14 01:44:19;;;;;;;19.90;5.95;;;6.60;99.90;;;;;;5067119;28;20067;-69
2023/01/14 01:46:45;;;;;;;30.83;6.70;;;6.60;99.90;;;;;;5063472;28;20048;-70
2023/01/14 01:49:33;;;;;;;20.10;5.13;;;6.60;99.90;;;;;;5066932;28;20044;-70
2023/01/14 01:52:12;;;;;;;26.13;7.28;;;6.70;99.90;;;;;;5054775;28;20044;-69
2023/01/14 01:55:01;;;;;;;22.08;5.72;;;6.70;99.90;;;;;;5066276;28;20056;-69
2023/01/14 01:57:28;;;;;;;13.38;4.80;;;6.70;99.90;;;;;;5066752;28;20038;-69
2023/01/14 01:59:58;;;;;;;14.80;5.47;;;6.70;99.90;;;;;;5065758;28;20044;-69
2023/01/14 02:02:26;;;;;;;28.83;5.88;;;6.70;99.90;;;;;;5067322;28;20074;-69
2023/01/14 02:04:51;;;;;;;15.85;5.22;;;6.70;99.90;;;;;;5063787;28;20524;-69
2023/01/14 02:07:22;;;;;;;25.00;5.45;;;6.70;99.90;;;;;;5067002;28;20067;-69
2023/01/14 02:09:52;;;;;;;21.63;5.15;;;6.70;99.90;;;;;;5065072;28;20044;-69
2023/01/14 02:12:38;;;;;;;16.27;4.90;;;6.70;99.90;;;;;;5066616;28;20067;-69
2023/01/14 02:15:26;;;;;;;21.50;5.60;;;6.70;99.90;;;;;;5065550;28;20048;-69
2023/01/14 02:18:33;;;;;;;16.10;5.40;;;6.70;99.90;;;;;;5066447;28;20124;-69
2023/01/14 02:21:19;;;;;;;19.92;5.80;;;6.70;99.90;;;;;;5063454;28;20310;-69
2023/01/14 02:24:03;;;;;;;21.70;4.68;;;6.70;99.90;;;;;;5066782;28;20091;-69
2023/01/14 02:26:58;;;;;;;30.45;5.55;;;6.70;99.90;;;;;;5062424;28;20056;-69
2023/01/14 02:29:35;;;;;;;31.23;6.43;;;6.80;99.90;;;;;;5064957;28;20078;-68
2023/01/14 02:32:23;;;;;;;29.70;6.57;;;6.80;99.90;;;;;;5070545;28;20134;-69
2023/01/14 02:34:54;;;;;;;21.80;5.20;;;6.80;99.90;;;;;;5069221;28;20052;-69
2023/01/14 02:37:28;;;;;;;18.55;5.32;;;6.80;99.90;;;;;;5065190;28;20049;-69
2023/01/14 02:40:09;;;;;;;20.77;5.88;;;6.80;99.90;;;;;;5058903;28;20604;-69
2023/01/14 02:45:55;;;;;;;29.10;6.63;;;6.80;99.90;;;;;;5072108;28;20057;-69
2023/01/14 02:48:23;;;;;;;31.23;6.40;;;6.80;99.90;;;;;;5078872;28;20043;-69
2023/01/14 02:50:50;;;;;;;16.83;5.60;;;6.80;99.90;;;;;;5070797;28;20060;-69
2023/01/14 02:53:18;;;;;;;22.35;6.00;;;6.80;99.90;;;;;;5060433;28;20124;-69
2023/01/14 02:55:44;;;;;;;29.63;6.20;;;6.80;99.90;;;;;;5061115;28;20053;-69
2023/01/14 02:58:18;;;;;;;30.55;6.05;;;6.80;99.90;;;;;;5069860;28;20051;-68
2023/01/14 03:00:57;;;;;;;22.63;5.25;;;6.90;99.90;;;;;;5061133;28;20044;-69
2023/01/14 03:03:38;;;;;;;30.30;6.72;;;6.90;99.90;;;;;;5061121;28;20045;-68
2023/01/14 03:06:24;;;;;;;16.73;4.70;;;6.90;99.90;;;;;;5057804;28;20057;-68
2023/01/14 03:08:59;;;;;;;20.80;6.10;;;6.90;99.90;;;;;;5068793;28;20045;-68
2023/01/14 03:11:37;;;;;;;19.90;7.20;;;6.90;99.90;;;;;;5068785;28;20058;-68
2023/01/14 03:14:19;;;;;;;23.00;6.45;;;6.80;99.90;;;;;;5065426;28;20091;-68
2023/01/14 03:16:51;;;;;;;29.33;6.97;;;6.90;99.90;;;;;;5069821;28;20560;-68
2023/01/14 03:19:31;;;;;;;25.10;5.63;;;6.80;99.90;;;;;;5069189;28;20037;-68
2023/01/14 03:21:58;;;;;;;16.95;5.47;;;6.80;99.90;;;;;;5070145;28;20052;-68
2023/01/14 03:24:32;;;;;;;21.75;5.72;;;6.80;99.90;;;;;;5064647;28;20548;-69
2023/01/14 03:27:05;;;;;;;39.65;7.57;;;6.80;99.90;;;;;;5063346;28;20095;-69
2023/01/14 03:29:37;;;;;;;21.88;5.63;;;6.70;99.90;;;;;;5062812;28;20045;-69
2023/01/14 03:32:12;;;;;;;37.08;6.65;;;6.70;99.90;;;;;;5067091;28;20075;-68
2023/01/14 03:34:46;;;;;;;25.45;6.32;;;6.70;99.90;;;;;;5069751;28;20049;-69
2023/01/14 03:37:15;;;;;;;25.30;5.35;;;6.60;99.90;;;;;;5069301;28;20052;-69
2023/01/14 03:39:46;;;;;;;30.83;6.45;;;6.60;99.90;;;;;;5058470;28;20045;-68
2023/01/14 03:42:18;;;;;;;24.67;5.50;;;6.60;99.90;;;;;;5063088;28;20398;-68
2023/01/14 03:44:57;;;;;;;28.23;6.25;;;6.50;99.90;;;;;;5059748;28;20670;-69
2023/01/14 03:47:27;;;;;;;20.20;5.65;;;6.50;99.90;;;;;;5069046;28;20040;-69
2023/01/14 03:49:54;;;;;;;26.15;6.32;;;6.40;99.90;;;;;;5068795;28;20261;-69
2023/01/14 03:52:47;;;;;;;29.92;6.30;;;6.40;99.90;;;;;;5069587;28;20048;-69
2023/01/14 03:55:20;;;;;;;22.45;5.97;;;6.30;99.90;;;;;;5058900;28;20052;-69
2023/01/14 03:58:00;;;;;;;24.40;6.63;;;6.30;99.90;;;;;;5063881;28;20044;-69
2023/01/14 04:00:36;;;;;;;25.33;5.38;;;6.30;99.90;;;;;;5068523;28;20032;-69
2023/01/14 04:03:08;;;;;;;29.83;5.95;;;6.20;99.90;;;;;;5068283;28;20043;-69
2023/01/14 04:05:36;;;;;;;30.05;7.28;;;6.20;99.90;;;;;;5059087;28;20045;-69
2023/01/14 04:08:04;;;;;;;19.27;5.13;;;6.20;99.90;;;;;;5069191;28;20067;-69
2023/01/14 04:10:30;;;;;;;21.75;6.65;;;6.10;99.90;;;;;;5067910;28;20080;-69
2023/01/14 04:15:40;;;;;;;15.90;4.47;;;6.10;99.90;;;;;;5065570;28;20147;-69
2023/01/14 04:18:05;;;;;;;22.85;5.35;;;6.10;99.90;;;;;;5068521;28;20521;-69
2023/01/14 04:20:31;;;;;;;21.13;4.97;;;6.10;99.90;;;;;;5068990;28;20036;-69
2023/01/14 04:22:58;;;;;;;15.00;4.95;;;6.10;99.90;;;;;;5057742;28;20048;-69
2023/01/14 04:25:23;;;;;;;21.90;4.80;;;6.10;99.90;;;;;;5068273;28;20032;-69
2023/01/14 04:27:49;;;;;;;22.42;6.35;;;6.10;99.90;;;;;;5069067;28;20074;-68
2023/01/14 04:30:15;;;;;;;20.35;4.90;;;6.00;99.90;;;;;;5066311;28;20048;-69
2023/01/14 04:32:40;;;;;;;24.98;5.28;;;6.00;99.90;;;;;;5064068;28;20561;-69
2023/01/14 04:35:06;;;;;;;18.02;5.95;;;6.00;99.90;;;;;;5068480;28;20036;-69
2023/01/14 04:37:32;;;;;;;30.50;6.20;;;6.00;99.90;;;;;;5068669;28;20094;-69
2023/01/14 04:39:58;;;;;;;26.85;6.18;;;6.00;99.90;;;;;;5056794;28;20092;-69
2023/01/14 04:42:26;;;;;;;22.83;5.88;;;6.00;99.90;;;;;;5062626;28;20512;-69
2023/01/14 04:44:57;;;;;;;20.30;5.32;;;6.00;99.90;;;;;;5059203;28;20518;-69
2023/01/14 04:47:23;;;;;;;34.40;7.22;;;6.00;99.90;;;;;;5067931;28;20098;-69
2023/01/14 04:49:49;;;;;;;26.20;6.05;;;6.00;99.90;;;;;;5065285;28;20692;-69
2023/01/14 04:52:15;;;;;;;24.48;6.43;;;6.00;99.90;;;;;;5055947;28;20044;-69
2023/01/14 04:54:41;;;;;;;23.45;6.35;;;5.90;99.90;;;;;;5066713;28;20036;-69
2023/01/14 04:57:06;;;;;;;24.77;7.40;;;5.90;99.90;;;;;;5063589;28;20044;-69
2023/01/14 04:59:32;;;;;;;33.50;6.25;;;5.90;99.90;;;;;;5047490;28;20513;-69
2023/01/14 05:01:58;;;;;;;30.83;6.47;;;5.90;99.90;;;;;;5068664;28;20044;-69
2023/01/14 05:04:24;;;;;;;28.48;7.25;;;5.90;99.90;;;;;;5064182;28;20122;-69
2023/01/14 05:06:49;;;;;;;22.65;6.50;;;5.90;99.90;;;;;;5066186;28;20044;-69
2023/01/14 05:09:15;;;;;;;19.70;5.47;;;5.90;99.90;;;;;;5067833;28;20058;-68
2023/01/14 05:11:41;;;;;;;18.95;6.57;;;5.80;99.90;;;;;;5063462;28;20406;-69
2023/01/14 05:14:06;;;;;;;22.05;6.93;;;5.80;99.90;;;;;;5062225;28;20197;-69
2023/01/14 05:16:32;;;;;;;25.42;8.00;;;5.80;99.90;;;;;;5067461;28;20109;-69
2023/01/14 05:18:57;;;;;;;32.97;6.35;;;5.80;99.90;;;;;;5063395;28;20170;-69
2023/01/14 05:21:24;;;;;;;37.45;7.22;;;5.80;99.90;;;;;;5066024;28;20798;-69
2023/01/14 05:23:50;;;;;;;27.60;7.00;;;5.80;99.90;;;;;;5066046;28;20051;-69
2023/01/14 05:26:16;;;;;;;30.55;7.28;;;5.80;99.90;;;;;;5067502;28;20048;-69
2023/01/14 05:28:41;;;;;;;33.72;7.63;;;5.80;99.90;;;;;;5065937;28;20041;-69
2023/01/14 05:31:07;;;;;;;26.08;6.68;;;5.80;99.90;;;;;;5063605;28;20101;-69
2023/01/14 05:33:33;;;;;;;28.77;7.88;;;5.80;99.90;;;;;;5065151;28;20086;-69
2023/01/14 05:36:00;;;;;;;33.53;7.80;;;5.80;99.90;;;;;;5067477;28;20471;-69
2023/01/14 05:38:26;;;;;;;30.30;7.53;;;5.70;99.90;;;;;;5066787;28;20067;-68
2023/01/14 05:40:52;;;;;;;16.27;6.43;;;5.70;99.90;;;;;;5062543;28;20174;-69
2023/01/14 05:46:13;;;;;;;26.63;9.68;;;5.80;99.90;;;;;;5053326;28;20056;-69
2023/01/14 05:48:39;;;;;;;18.25;7.00;;;5.70;99.90;;;;;;5055219;28;20099;-69
2023/01/14 05:51:05;;;;;;;25.17;9.15;;;5.70;99.90;;;;;;5061063;28;20081;-69
2023/01/14 05:53:32;;;;;;;32.40;7.68;;;5.70;99.90;;;;;;5057966;28;20087;-69
2023/01/14 05:55:59;;;;;;;35.20;8.18;;;5.70;99.90;;;;;;5057245;28;20045;-69
2023/01/14 05:58:26;;;;;;;26.08;8.60;;;5.70;99.90;;;;;;5066357;28;20098;-69
2023/01/14 06:06:31;;;;;;;32.05;10.10;;;5.70;99.90;;;;;;5063122;28;20790;-69
2023/01/14 06:09:17;;;;;;;29.02;10.00;;;5.70;99.90;;;;;;5062633;28;20097;-69
2023/01/14 06:11:45;;;;;;;29.25;9.73;;;5.80;99.90;;;;;;5065624;28;20100;-69
2023/01/14 06:14:11;;;;;;;34.53;11.38;;;5.70;99.90;;;;;;5055490;28;20041;-69
2023/01/14 06:16:41;;;;;;;36.90;11.85;;;5.70;99.90;;;;;;5058288;28;20377;-69
2023/01/14 06:19:14;;;;;;;37.13;12.63;;;5.70;99.90;;;;;;5064328;28;20116;-69
2023/01/14 06:21:43;;;;;;;44.30;12.07;;;5.70;99.90;;;;;;5057026;28;20047;-68
2023/01/14 06:24:08;;;;;;;33.67;11.90;;;5.70;99.90;;;;;;5052363;28;20045;-70
2023/01/14 06:26:35;;;;;;;29.17;10.73;;;5.60;99.90;;;;;;5058574;28;20446;-69
2023/01/14 06:29:04;;;;;;;34.38;10.45;;;5.60;99.90;;;;;;5062108;28;20044;-69
2023/01/14 06:31:30;;;;;;;38.38;10.50;;;5.60;99.90;;;;;;5055963;28;20044;-69
2023/01/14 06:34:11;;;;;;;34.22;11.00;;;5.60;99.90;;;;;;5124453;27;20130;-69
2023/01/14 06:36:37;;;;;;;40.95;12.30;;;5.60;99.90;;;;;;5122525;27;20043;-69
2023/01/14 06:39:04;;;;;;;28.75;10.68;;;5.60;99.90;;;;;;5119082;28;20377;-69
2023/01/14 06:41:30;;;;;;;55.55;11.40;;;5.60;99.90;;;;;;5118898;28;20043;-69
2023/01/14 06:43:55;;;;;;;34.03;11.07;;;5.60;99.90;;;;;;5116432;28;20052;-69
2023/01/14 06:46:21;;;;;;;41.58;11.10;;;5.60;99.90;;;;;;5105320;28;20493;-69
2023/01/14 06:48:47;;;;;;;39.42;11.95;;;5.60;99.90;;;;;;5111578;28;20040;-69
2023/01/14 06:51:16;;;;;;;35.50;9.82;;;5.60;99.90;;;;;;5107987;28;20043;-69
2023/01/14 06:53:42;;;;;;;30.20;9.52;;;5.60;99.90;;;;;;5121355;28;20049;-69
2023/01/14 06:56:12;;;;;;;39.55;10.20;;;5.60;99.90;;;;;;5123165;27;20048;-69
2023/01/14 06:58:39;;;;;;;60.10;11.90;;;5.60;99.90;;;;;;5110434;28;20047;-69
2023/01/14 07:01:05;;;;;;;37.65;11.30;;;5.60;99.90;;;;;;5113976;28;20536;-69
2023/01/14 07:03:32;;;;;;;34.28;10.10;;;5.60;99.90;;;;;;5118786;28;20130;-69
2023/01/14 07:06:00;;;;;;;36.58;10.68;;;5.60;99.90;;;;;;5116806;28;20100;-70
2023/01/14 07:08:27;;;;;;;37.55;10.77;;;5.60;99.90;;;;;;5116929;28;20053;-69
2023/01/14 07:10:53;;;;;;;32.97;10.77;;;5.60;99.90;;;;;;5123192;27;20050;-70
2023/01/14 07:13:21;;;;;;;39.50;10.18;;;5.70;99.90;;;;;;5119581;27;20039;-69
2023/01/14 07:15:47;;;;;;;36.37;10.83;;;5.70;99.90;;;;;;5122712;28;20073;-70
2023/01/14 07:18:13;;;;;;;34.42;10.13;;;5.70;99.90;;;;;;5120704;27;20044;-69
2023/01/14 07:20:40;;;;;;;43.17;9.55;;;5.70;99.90;;;;;;5122774;27;20601;-69
2023/01/14 07:23:06;;;;;;;46.00;11.80;;;5.70;99.90;;;;;;5117972;27;20046;-69
2023/01/14 07:25:36;;;;;;;31.95;9.95;;;5.70;99.90;;;;;;5123777;27;20161;-69
2023/01/14 07:28:03;;;;;;;33.55;10.32;;;5.70;99.90;;;;;;5123540;27;20062;-69
2023/01/14 07:30:28;;;;;;;34.80;10.63;;;5.70;99.90;;;;;;5123132;27;20431;-69
2023/01/14 07:32:57;;;;;;;33.67;9.80;;;5.80;99.90;;;;;;5121925;28;20055;-70
2023/01/14 07:35:23;;;;;;;50.25;11.55;;;5.70;99.90;;;;;;5121835;27;20399;-68
2023/01/14 07:37:53;;;;;;;43.97;10.65;;;5.80;99.90;;;;;;5120059;28;20047;-68
2023/01/14 07:40:18;;;;;;;40.95;10.18;;;5.80;99.90;;;;;;5122227;27;20118;-68
2023/01/14 07:42:44;;;;;;;33.70;11.60;;;5.80;99.90;;;;;;5121992;28;20122;-69
2023/01/14 07:45:10;;;;;;;36.47;11.20;;;5.80;99.90;;;;;;5108935;28;20548;-68
2023/01/14 07:47:36;;;;;;;48.33;13.55;;;5.90;99.90;;;;;;5099283;28;20076;-69
2023/01/14 07:50:01;;;;;;;27.38;11.63;;;5.90;99.90;;;;;;5102154;28;20040;-69
2023/01/14 07:52:27;;;;;;;37.83;12.60;;;5.90;99.90;;;;;;5102551;28;20162;-69
2023/01/14 07:54:53;;;;;;;32.17;12.05;;;5.90;99.90;;;;;;5101078;28;20130;-69
2023/01/14 07:57:18;;;;;;;42.03;13.23;;;5.90;99.90;;;;;;5105462;28;20051;-69
2023/01/14 07:59:44;;;;;;;52.17;17.67;;;6.00;99.90;;;;;;5098153;28;20149;-69
2023/01/14 08:02:11;;;;;;;59.95;21.85;;;5.90;99.90;;;;;;5092676;28;20056;-68
2023/01/14 08:04:37;;;;;;;46.22;12.75;;;6.00;99.90;;;;;;5090550;28;20036;-69
2023/01/14 08:07:08;;;;;;;31.40;9.68;;;6.00;99.90;;;;;;5089112;28;20040;-69
2023/01/14 08:09:34;;;;;;;41.85;10.80;;;6.00;99.90;;;;;;5100394;28;20554;-69
2023/01/14 08:12:00;;;;;;;41.30;11.13;;;6.00;99.90;;;;;;5100596;28;20040;-69
2023/01/14 08:14:26;;;;;;;37.53;9.38;;;6.00;99.90;;;;;;5094615;28;20074;-69
2023/01/14 08:16:51;;;;;;;37.28;10.38;;;6.00;99.90;;;;;;5089371;28;20536;-70
2023/01/14 08:19:18;;;;;;;36.28;9.38;;;6.00;99.90;;;;;;5098141;28;20044;-69
2023/01/14 08:21:44;;;;;;;27.98;9.18;;;6.10;99.90;;;;;;5094811;28;20405;-69
2023/01/14 08:24:10;;;;;;;34.13;9.05;;;6.10;99.90;;;;;;5102905;27;20522;-69
2023/01/14 08:26:36;;;;;;;48.70;11.48;;;6.10;99.90;;;;;;5103707;27;20043;-70
2023/01/14 08:29:02;;;;;;;30.92;9.07;;;6.10;99.90;;;;;;5104342;28;20119;-70
2023/01/14 08:31:27;;;;;;;48.20;11.23;;;6.10;99.90;;;;;;5102757;28;20044;-69
2023/01/14 08:33:53;;;;;;;63.40;11.50;;;6.10;99.90;;;;;;5091179;28;20048;-69
2023/01/14 08:36:19;;;;;;;31.83;9.75;;;6.10;99.90;;;;;;5096383;28;20128;-70
2023/01/14 08:38:51;;;;;;;28.55;7.72;;;6.10;99.90;;;;;;5104416;28;20657;-69
2023/01/14 08:41:18;;;;;;;32.30;9.63;;;6.10;99.90;;;;;;5102661;28;20067;-69
2023/01/14 08:43:48;;;;;;;29.15;8.18;;;6.10;99.90;;;;;;5100039;28;20040;-69
2023/01/14 08:46:14;;;;;;;42.22;9.02;;;6.10;99.90;;;;;;5095235;28;20055;-69
2023/01/14 08:48:40;;;;;;;45.45;10.60;;;6.10;99.90;;;;;;5098920;28;20047;-69
2023/01/14 08:51:08;;;;;;;41.05;17.58;;;6.10;99.90;;;;;;5098372;28;20070;-69
2023/01/14 08:53:35;;;;;;;27.88;11.73;;;6.20;99.90;;;;;;5097719;28;20058;-70
2023/01/14 08:56:02;;;;;;;38.22;9.93;;;6.20;99.90;;;;;;5100381;28;20485;-70
2023/01/14 08:58:28;;;;;;;37.88;8.85;;;6.20;99.90;;;;;;5102106;28;20586;-70
2023/01/14 09:01:02;;;;;;;25.30;8.55;;;6.10;99.90;;;;;;5102415;28;20119;-70
2023/01/14 09:03:30;;;;;;;29.27;7.63;;;6.20;99.90;;;;;;5101844;28;20059;-70
2023/01/14 09:06:05;;;;;;;30.73;8.27;;;6.20;99.90;;;;;;5101721;28;20048;-70
2023/01/14 09:17:06;;;;;;;32.13;7.82;;;6.20;99.90;;;;;;5087115;28;20052;-70
2023/01/14 09:19:47;;;;;;;19.77;7.80;;;6.20;99.90;;;;;;5088764;28;20539;-70
2023/01/14 09:22:20;;;;;;;26.58;7.75;;;6.20;99.90;;;;;;5095736;28;20079;-71
2023/01/14 09:24:46;;;;;;;34.97;9.75;;;6.20;99.90;;;;;;5096460;28;20047;-71
2023/01/14 09:27:13;;;;;;;32.85;8.10;;;6.20;99.90;;;;;;5103382;28;20073;-71
2023/01/14 09:29:39;;;;;;;18.83;7.00;;;6.20;99.90;;;;;;5088196;28;20408;-70
2023/01/14 09:32:09;;;;;;;32.75;9.48;;;6.30;99.90;;;;;;5103082;28;20063;-70
2023/01/14 09:34:37;;;;;;;28.00;8.45;;;6.20;99.90;;;;;;5091887;28;20044;-70
2023/01/14 09:37:03;;;;;;;37.03;9.15;;;6.20;99.90;;;;;;5090535;28;20097;-70
2023/01/14 09:39:28;;;;;;;25.00;8.48;;;6.20;99.90;;;;;;5097531;28;20044;-70
2023/01/14 09:41:58;;;;;;;22.60;7.95;;;6.20;99.90;;;;;;5093668;28;20852;-71
2023/01/14 09:44:24;;;;;;;27.65;6.85;;;6.20;99.90;;;;;;5094220;28;20048;-70
2023/01/14 09:46:51;;;;;;;27.85;7.68;;;6.30;99.90;;;;;;5097247;28;20043;-70
2023/01/14 09:49:22;;;;;;;33.22;8.18;;;6.30;99.90;;;;;;5076660;28;20056;-70
2023/01/14 09:52:12;;;;;;;22.25;8.68;;;6.30;99.90;;;;;;5095526;28;20584;-70
2023/01/14 09:54:43;;;;;;;26.23;7.80;;;6.30;99.90;;;;;;5098187;28;20052;-71
2023/01/14 09:57:36;;;;;;;23.55;7.53;;;6.30;99.90;;;;;;5095970;28;20492;-70
2023/01/14 10:00:26;;;;;;;21.35;7.35;;;6.40;99.90;;;;;;5095107;28;20076;-70
2023/01/14 10:03:27;;;;;;;25.00;7.18;;;6.30;99.90;;;;;;5035398;28;20063;-71
2023/01/14 10:06:10;;;;;;;32.80;7.80;;;6.40;99.90;;;;;;5089747;28;20090;-70
2023/01/14 10:08:41;;;;;;;16.55;6.18;;;6.40;99.90;;;;;;5096692;28;20101;-70
2023/01/14 10:11:08;;;;;;;22.35;6.10;;;6.40;99.90;;;;;;5104595;28;20471;-71
2023/01/14 10:13:44;;;;;;;16.42;6.10;;;6.40;99.90;;;;;;5119800;27;20112;-71
2023/01/14 10:16:17;;;;;;;21.80;7.13;;;6.40;99.90;;;;;;5092413;28;20097;-71
2023/01/14 10:18:52;;;;;;;17.65;6.18;;;6.50;99.90;;;;;;5097612;28;20110;-71
2023/01/14 10:21:38;;;;;;;20.85;7.50;;;6.50;99.90;;;;;;5101023;28;20498;-71
2023/01/14 10:24:04;;;;;;;16.20;5.95;;;6.50;99.90;;;;;;5097070;28;20048;-71
2023/01/14 10:26:32;;;;;;;14.40;6.30;;;6.50;99.90;;;;;;5092801;28;20044;-70
2023/01/14 10:29:02;;;;;;;11.32;6.20;;;6.50;99.90;;;;;;5092781;28;20067;-70
2023/01/14 10:31:31;;;;;;;13.82;6.18;;;6.50;99.90;;;;;;5088788;28;20204;-70
2023/01/14 10:33:58;;;;;;;16.23;6.13;;;6.50;99.90;;;;;;5090613;28;20409;-71
2023/01/14 10:36:29;;;;;;;17.73;6.43;;;6.60;99.90;;;;;;5099336;28;20063;-71
2023/01/14 10:38:56;;;;;;;18.17;6.88;;;6.60;99.90;;;;;;5103697;28;20084;-71
2023/01/14 10:44:21;;;;;;;11.43;5.90;;;6.70;99.90;;;;;;5095093;28;20052;-71
2023/01/14 10:46:47;;;;;;;16.95;7.00;;;6.70;99.90;;;;;;5089711;28;20101;-71
2023/01/14 10:49:19;;;;;;;14.15;7.28;;;6.70;99.90;;;;;;5099921;28;20036;-71
2023/01/14 10:51:49;;;;;;;21.45;7.50;;;6.70;99.90;;;;;;5097637;28;20044;-72
2023/01/14 10:54:24;;;;;;;12.10;6.97;;;6.80;99.90;;;;;;5098011;28;20083;-72
2023/01/14 10:56:54;;;;;;;8.98;5.70;;;6.80;99.90;;;;;;5092932;28;20043;-71
2023/01/14 10:59:38;;;;;;;19.00;8.15;;;6.80;99.90;;;;;;5093029;28;20058;-71
2023/01/14 11:02:04;;;;;;;11.95;6.13;;;6.80;99.90;;;;;;5084903;28;20054;-71
2023/01/14 11:04:33;;;;;;;9.43;6.10;;;6.80;99.90;;;;;;5091345;28;20083;-72
2023/01/14 11:07:08;;;;;;;13.65;7.18;;;6.90;99.90;;;;;;5100436;28;20047;-71
2023/01/14 11:09:34;;;;;;;10.50;6.03;;;7.00;99.90;;;;;;5087068;28;20481;-71
2023/01/14 11:11:59;;;;;;;8.10;5.50;;;7.00;99.90;;;;;;5095693;28;20150;-71
2023/01/14 11:14:31;;;;;;;16.70;6.53;;;7.00;99.90;;;;;;5118650;28;20552;-71
2023/01/14 11:16:59;;;;;;;11.70;5.90;;;7.10;99.90;;;;;;5099205;28;20052;-71
2023/01/14 11:19:25;;;;;;;12.45;6.47;;;7.10;99.90;;;;;;5091030;28;20397;-71
2023/01/14 11:21:54;;;;;;;9.90;5.95;;;7.10;99.90;;;;;;5103661;28;20044;-71
2023/01/14 11:24:26;;;;;;;11.55;5.63;;;7.10;99.90;;;;;;5083484;28;20516;-71
2023/01/14 11:27:06;;;;;;;9.98;5.25;;;7.20;99.90;;;;;;5089856;28;20048;-71
2023/01/14 11:29:36;;;;;;;8.45;5.32;;;7.20;99.90;;;;;;5100629;28;20047;-71
2023/01/14 11:32:12;;;;;;;6.25;4.72;;;7.20;99.90;;;;;;5105108;28;20159;-71
2023/01/14 11:34:45;;;;;;;13.00;5.07;;;7.20;99.90;;;;;;5105385;28;20062;-71
2023/01/14 11:37:13;;;;;;;13.13;5.43;;;7.20;99.90;;;;;;5105626;28;20043;-71
2023/01/14 11:39:45;;;;;;;8.48;5.13;;;7.20;99.90;;;;;;5108426;28;20077;-71
2023/01/14 11:42:42;;;;;;;11.68;4.90;;;7.20;99.90;;;;;;5106328;28;20056;-71
2023/01/14 11:45:10;;;;;;;11.68;5.07;;;7.20;99.90;;;;;;5095160;28;20040;-71
2023/01/14 11:47:54;;;;;;;10.13;4.13;;;7.20;99.90;;;;;;5094560;28;20082;-71
2023/01/14 11:50:24;;;;;;;5.43;4.03;;;7.30;99.90;;;;;;5097368;28;20048;-71
2023/01/14 11:53:16;;;;;;;7.90;3.80;;;7.30;99.90;;;;;;5101180;28;20051;-71
2023/01/14 11:55:44;;;;;;;6.78;3.72;;;7.30;99.90;;;;;;5098770;28;20079;-71
2023/01/14 11:58:18;;;;;;;5.45;3.47;;;7.30;99.90;;;;;;5105459;28;20059;-71
2023/01/14 12:00:56;;;;;;;11.80;4.13;;;7.30;99.90;;;;;;5097774;28;20062;-71
2023/01/14 12:03:48;;;;;;;8.90;4.10;;;7.30;99.90;;;;;;5099022;28;20073;-71
2023/01/14 12:06:27;;;;;;;7.65;3.78;;;7.30;99.90;;;;;;5103516;28;20136;-71
2023/01/14 12:08:59;;;;;;;7.93;3.88;;;7.40;99.90;;;;;;5096977;28;20423;-71
2023/01/14 12:12:03;;;;;;;6.28;3.60;;;7.40;99.90;;;;;;5094987;28;20180;-70
2023/01/14 12:17:49;;;;;;;4.85;3.47;;;7.40;99.90;;;;;;5097086;28;20048;-71
2023/01/14 12:20:18;;;;;;;5.47;4.00;;;7.40;99.90;;;;;;5088027;28;20411;-70
2023/01/14 12:23:10;;;;;;;7.22;4.10;;;7.40;99.90;;;;;;5105015;27;20481;-71
2023/01/14 12:25:46;;;;;;;7.65;3.80;;;7.50;99.90;;;;;;5098139;28;20044;-72
2023/01/14 12:28:29;;;;;;;9.75;4.57;;;7.50;99.90;;;;;;5089794;28;20048;-72
2023/01/14 12:30:55;;;;;;;5.75;3.83;;;7.50;99.90;;;;;;5090372;28;20111;-72
2023/01/14 12:33:31;;;;;;;8.75;4.10;;;7.50;99.90;;;;;;5094105;28;20119;-72
2023/01/14 12:36:19;;;;;;;5.80;3.88;;;7.50;99.90;;;;;;5092115;28;20663;-72
2023/01/14 12:45:49;;;;;;;6.70;3.63;;;7.60;99.90;;;;;;5087695;28;20051;-69
2023/01/14 12:48:17;;;;;;;3.63;2.95;;;7.60;99.90;;;;;;5095006;28;20136;-72
2023/01/14 12:51:02;;;;;;;4.68;3.22;;;7.70;99.90;;;;;;5088163;28;20758;-72
2023/01/14 12:53:46;;;;;;;8.50;3.47;;;7.70;99.90;;;;;;5102314;28;20629;-72
2023/01/14 12:56:29;;;;;;;5.10;2.97;;;7.70;99.90;;;;;;5105292;28;20048;-71
2023/01/14 12:59:26;;;;;;;6.70;3.10;;;7.70;99.90;;;;;;5105611;28;20888;-70
2023/01/14 13:02:05;;;;;;;5.05;3.42;;;7.80;99.90;;;;;;5096941;28;20051;-69
2023/01/14 13:04:46;;;;;;;5.18;2.90;;;7.80;99.90;;;;;;5091072;28;20039;-70
2023/01/14 13:07:19;;;;;;;7.57;3.45;;;7.80;99.90;;;;;;5098092;28;20056;-71
2023/01/14 13:09:50;;;;;;;4.35;3.15;;;7.80;99.90;;;;;;5092082;28;20051;-71
2023/01/14 13:12:22;;;;;;;4.05;3.53;;;7.90;99.90;;;;;;5104890;28;20079;-72
2023/01/14 13:14:57;;;;;;;6.22;3.45;;;7.90;99.90;;;;;;5099096;28;20181;-72
2023/01/14 13:17:39;;;;;;;4.88;3.22;;;7.90;99.90;;;;;;5089092;28;20144;-70
2023/01/14 13:20:06;;;;;;;2.90;2.70;;;8.00;99.90;;;;;;5097138;28;20052;-70
2023/01/14 13:22:47;;;;;;;8.20;3.63;;;8.00;99.90;;;;;;5097394;28;20052;-71
2023/01/14 13:25:32;;;;;;;3.47;2.70;;;8.10;99.90;;;;;;5093321;28;20051;-72
2023/01/14 13:28:00;;;;;;;4.25;2.90;;;8.10;99.90;;;;;;5092183;28;20051;-70
2023/01/14 13:30:25;;;;;;;4.35;2.78;;;8.10;99.90;;;;;;5101350;28;20058;-69
2023/01/14 13:33:11;;;;;;;3.22;2.70;;;8.10;99.90;;;;;;5122574;27;20130;-73
2023/01/14 13:35:39;;;;;;;2.85;2.40;;;8.10;99.90;;;;;;5084782;28;20615;-72
2023/01/14 13:38:19;;;;;;;3.45;2.67;;;8.10;99.90;;;;;;5102166;28;20063;-70
2023/01/14 13:40:53;;;;;;;5.95;3.03;;;8.20;99.90;;;;;;5101777;28;20043;-72